sensor_id;sensor_type;location;lat;lon;timestamp;temperature;humidity
73133;DHT22;61320;52.008;4.530;2022-12-18T00:02:06;1.76;77.05
73133;DHT22;61320;52.008;4.530;2022-12-18T00:04:31;1.74;76.09
73133;DHT22;61320;52.008;4.530;2022-12-18T00:06:56;1.76;76.71
73133;DHT22;61320;52.008;4.530;2022-12-18T00:09:22;1.78;76.97
73133;DHT22;61320;52.008;4.530;2022-12-18T00:11:48;1.87;77.47
73133;DHT22;61320;52.008;4.530;2022-12-18T00:14:14;1.93;77.70
73133;DHT22;61320;52.008;4.530;2022-12-18T00:16:43;2.01;77.32
73133;DHT22;61320;52.008;4.530;2022-12-18T00:19:21;2.01;75.63
73133;DHT22;61320;52.008;4.530;2022-12-18T00:21:53;1.93;77.02
73133;DHT22;61320;52.008;4.530;2022-12-18T00:24:38;2.01;75.68
73133;DHT22;61320;52.008;4.530;2022-12-18T00:27:07;1.96;76.78
73133;DHT22;61320;52.008;4.530;2022-12-18T00:29:40;1.98;77.14
73133;DHT22;61320;52.008;4.530;2022-12-18T00:32:05;2.00;76.05
73133;DHT22;61320;52.008;4.530;2022-12-18T00:34:31;1.98;76.84
73133;DHT22;61320;52.008;4.530;2022-12-18T00:36:56;1.94;76.50
73133;DHT22;61320;52.008;4.530;2022-12-18T00:39:21;1.91;75.31
73133;DHT22;61320;52.008;4.530;2022-12-18T00:41:47;1.88;75.53
73133;DHT22;61320;52.008;4.530;2022-12-18T00:44:31;1.90;76.37
73133;DHT22;61320;52.008;4.530;2022-12-18T00:46:57;1.93;75.71
73133;DHT22;61320;52.008;4.530;2022-12-18T00:49:22;1.80;74.10
73133;DHT22;61320;52.008;4.530;2022-12-18T00:51:48;1.66;75.74
73133;DHT22;61320;52.008;4.530;2022-12-18T00:54:15;1.66;74.75
73133;DHT22;61320;52.008;4.530;2022-12-18T00:56:40;1.53;74.45
73133;DHT22;61320;52.008;4.530;2022-12-18T00:59:06;1.46;75.17
73133;DHT22;61320;52.008;4.530;2022-12-18T01:01:32;1.42;75.57
73133;DHT22;61320;52.008;4.530;2022-12-18T01:03:59;1.46;77.37
73133;DHT22;61320;52.008;4.530;2022-12-18T01:06:25;1.42;74.33
73133;DHT22;61320;52.008;4.530;2022-12-18T01:08:50;1.31;76.07
73133;DHT22;61320;52.008;4.530;2022-12-18T01:11:19;1.32;76.95
73133;DHT22;61320;52.008;4.530;2022-12-18T01:13:45;1.31;75.25
73133;DHT22;61320;52.008;4.530;2022-12-18T01:16:12;1.27;75.68
73133;DHT22;61320;52.008;4.530;2022-12-18T01:18:39;1.22;75.90
73133;DHT22;61320;52.008;4.530;2022-12-18T01:21:09;1.29;77.83
73133;DHT22;61320;52.008;4.530;2022-12-18T01:23:35;1.36;75.78
73133;DHT22;61320;52.008;4.530;2022-12-18T01:26:08;1.39;75.57
73133;DHT22;61320;52.008;4.530;2022-12-18T01:28:34;1.50;78.09
73133;DHT22;61320;52.008;4.530;2022-12-18T01:31:17;1.57;76.26
73133;DHT22;61320;52.008;4.530;2022-12-18T01:33:43;1.64;77.18
73133;DHT22;61320;52.008;4.530;2022-12-18T01:36:24;1.71;77.82
73133;DHT22;61320;52.008;4.530;2022-12-18T01:38:51;1.74;75.63
73133;DHT22;61320;52.008;4.530;2022-12-18T01:41:23;1.80;77.50
73133;DHT22;61320;52.008;4.530;2022-12-18T01:43:50;1.87;77.24
73133;DHT22;61320;52.008;4.530;2022-12-18T01:46:18;1.87;76.11
73133;DHT22;61320;52.008;4.530;2022-12-18T01:48:48;1.86;77.13
73133;DHT22;61320;52.008;4.530;2022-12-18T01:51:14;1.90;76.82
73133;DHT22;61320;52.008;4.530;2022-12-18T01:53:44;1.90;75.37
73133;DHT22;61320;52.008;4.530;2022-12-18T01:56:19;1.86;76.59
73133;DHT22;61320;52.008;4.530;2022-12-18T01:59:09;1.86;76.79
73133;DHT22;61320;52.008;4.530;2022-12-18T02:01:36;1.84;76.55
73133;DHT22;61320;52.008;4.530;2022-12-18T02:04:22;1.88;76.76
73133;DHT22;61320;52.008;4.530;2022-12-18T02:07:03;1.86;76.33
73133;DHT22;61320;52.008;4.530;2022-12-18T02:09:48;1.90;76.98
73133;DHT22;61320;52.008;4.530;2022-12-18T02:12:25;1.96;76.54
73133;DHT22;61320;52.008;4.530;2022-12-18T02:15:13;1.94;75.23
73133;DHT22;61320;52.008;4.530;2022-12-18T02:17:48;1.81;75.54
73133;DHT22;61320;52.008;4.530;2022-12-18T02:20:48;1.76;76.03
73133;DHT22;61320;52.008;4.530;2022-12-18T02:29:08;1.73;76.12
73133;DHT22;61320;52.008;4.530;2022-12-18T02:31:42;1.73;76.46
73133;DHT22;61320;52.008;4.530;2022-12-18T02:34:10;1.73;77.42
73133;DHT22;61320;52.008;4.530;2022-12-18T02:36:41;1.76;76.34
73133;DHT22;61320;52.008;4.530;2022-12-18T02:39:11;1.74;76.67
73133;DHT22;61320;52.008;4.530;2022-12-18T02:41:38;1.74;76.71
73133;DHT22;61320;52.008;4.530;2022-12-18T02:44:11;1.76;76.98
73133;DHT22;61320;52.008;4.530;2022-12-18T02:49:19;1.77;75.30
73133;DHT22;61320;52.008;4.530;2022-12-18T02:52:27;1.71;76.24
73133;DHT22;61320;52.008;4.530;2022-12-18T02:57:58;1.55;76.33
73133;DHT22;61320;52.008;4.530;2022-12-18T03:00:41;1.55;76.13
73133;DHT22;61320;52.008;4.530;2022-12-18T03:03:34;1.55;77.21
73133;DHT22;61320;52.008;4.530;2022-12-18T03:06:06;1.56;77.19
73133;DHT22;61320;52.008;4.530;2022-12-18T03:08:39;1.66;77.27
73133;DHT22;61320;52.008;4.530;2022-12-18T03:11:09;1.59;76.41
73133;DHT22;61320;52.008;4.530;2022-12-18T03:13:44;1.60;76.08
73133;DHT22;61320;52.008;4.530;2022-12-18T03:16:17;1.63;76.14
73133;DHT22;61320;52.008;4.530;2022-12-18T03:18:59;1.67;76.06
73133;DHT22;61320;52.008;4.530;2022-12-18T03:21:39;1.45;76.24
73133;DHT22;61320;52.008;4.530;2022-12-18T03:24:08;1.40;75.89
73133;DHT22;61320;52.008;4.530;2022-12-18T03:26:39;1.34;76.13
73133;DHT22;61320;52.008;4.530;2022-12-18T03:29:18;1.24;74.48
73133;DHT22;61320;52.008;4.530;2022-12-18T03:31:51;1.27;77.08
73133;DHT22;61320;52.008;4.530;2022-12-18T03:34:32;1.35;76.60
73133;DHT22;61320;52.008;4.530;2022-12-18T03:37:03;1.34;76.62
73133;DHT22;61320;52.008;4.530;2022-12-18T03:39:29;1.38;76.70
73133;DHT22;61320;52.008;4.530;2022-12-18T03:42:07;1.32;74.99
73133;DHT22;61320;52.008;4.530;2022-12-18T03:47:21;1.27;77.85
73133;DHT22;61320;52.008;4.530;2022-12-18T03:50:14;1.24;74.10
73133;DHT22;61320;52.008;4.530;2022-12-18T03:55:15;1.08;72.98
73133;DHT22;61320;52.008;4.530;2022-12-18T03:57:44;0.94;73.94
73133;DHT22;61320;52.008;4.530;2022-12-18T04:00:15;1.01;77.43
73133;DHT22;61320;52.008;4.530;2022-12-18T04:02:51;1.09;76.80
73133;DHT22;61320;52.008;4.530;2022-12-18T04:05:19;1.08;76.44
73133;DHT22;61320;52.008;4.530;2022-12-18T04:07:47;1.02;74.55
73133;DHT22;61320;52.008;4.530;2022-12-18T04:10:16;0.97;75.92
73133;DHT22;61320;52.008;4.530;2022-12-18T04:12:42;0.97;74.96
73133;DHT22;61320;52.008;4.530;2022-12-18T04:15:08;0.94;75.18
73133;DHT22;61320;52.008;4.530;2022-12-18T04:17:34;0.81;75.72
73133;DHT22;61320;52.008;4.530;2022-12-18T04:20:00;0.95;77.95
73133;DHT22;61320;52.008;4.530;2022-12-18T04:22:25;1.07;77.28
73133;DHT22;61320;52.008;4.530;2022-12-18T04:24:50;0.99;74.92
73133;DHT22;61320;52.008;4.530;2022-12-18T04:27:16;0.98;75.78
73133;DHT22;61320;52.008;4.530;2022-12-18T04:29:42;0.94;76.04
73133;DHT22;61320;52.008;4.530;2022-12-18T04:32:08;0.88;73.22
73133;DHT22;61320;52.008;4.530;2022-12-18T04:34:33;0.80;75.31
73133;DHT22;61320;52.008;4.530;2022-12-18T04:36:59;0.80;77.08
73133;DHT22;61320;52.008;4.530;2022-12-18T04:39:24;0.74;73.98
73133;DHT22;61320;52.008;4.530;2022-12-18T04:41:50;0.71;75.04
73133;DHT22;61320;52.008;4.530;2022-12-18T04:44:15;0.69;76.57
73133;DHT22;61320;52.008;4.530;2022-12-18T04:46:41;0.67;75.97
73133;DHT22;61320;52.008;4.530;2022-12-18T04:49:06;0.61;75.31
73133;DHT22;61320;52.008;4.530;2022-12-18T04:51:32;0.59;75.21
73133;DHT22;61320;52.008;4.530;2022-12-18T04:53:57;0.50;74.44
73133;DHT22;61320;52.008;4.530;2022-12-18T04:56:23;0.42;74.18
73133;DHT22;61320;52.008;4.530;2022-12-18T04:58:49;0.40;76.34
73133;DHT22;61320;52.008;4.530;2022-12-18T05:01:17;0.39;75.62
73133;DHT22;61320;52.008;4.530;2022-12-18T05:03:43;0.35;74.66
73133;DHT22;61320;52.008;4.530;2022-12-18T05:06:09;0.25;72.95
73133;DHT22;61320;52.008;4.530;2022-12-18T05:08:35;0.19;74.02
73133;DHT22;61320;52.008;4.530;2022-12-18T05:11:06;0.13;75.32
73133;DHT22;61320;52.008;4.530;2022-12-18T05:13:33;0.09;73.42
73133;DHT22;61320;52.008;4.530;2022-12-18T05:15:59;0.08;74.26
73133;DHT22;61320;52.008;4.530;2022-12-18T05:18:25;0.10;75.91
73133;DHT22;61320;52.008;4.530;2022-12-18T05:20:52;0.12;74.42
73133;DHT22;61320;52.008;4.530;2022-12-18T05:23:18;0.01;74.23
73133;DHT22;61320;52.008;4.530;2022-12-18T05:25:55;-0.01;74.57
73133;DHT22;61320;52.008;4.530;2022-12-18T05:28:21;0.01;74.20
73133;DHT22;61320;52.008;4.530;2022-12-18T05:30:49;0.05;76.04
73133;DHT22;61320;52.008;4.530;2022-12-18T05:33:15;0.19;76.57
73133;DHT22;61320;52.008;4.530;2022-12-18T05:35:40;0.28;78.07
73133;DHT22;61320;52.008;4.530;2022-12-18T05:38:05;0.29;76.04
73133;DHT22;61320;52.008;4.530;2022-12-18T05:40:31;0.32;76.39
73133;DHT22;61320;52.008;4.530;2022-12-18T05:42:56;0.35;77.40
73133;DHT22;61320;52.008;4.530;2022-12-18T05:45:22;0.43;76.89
73133;DHT22;61320;52.008;4.530;2022-12-18T05:47:47;0.46;77.16
73133;DHT22;61320;52.008;4.530;2022-12-18T05:50:13;0.46;76.78
73133;DHT22;61320;52.008;4.530;2022-12-18T05:52:38;0.56;77.60
73133;DHT22;61320;52.008;4.530;2022-12-18T05:55:04;0.57;75.92
73133;DHT22;61320;52.008;4.530;2022-12-18T05:57:30;0.52;75.67
73133;DHT22;61320;52.008;4.530;2022-12-18T05:59:55;0.49;76.23
73133;DHT22;61320;52.008;4.530;2022-12-18T06:02:21;0.53;76.80
73133;DHT22;61320;52.008;4.530;2022-12-18T06:04:46;0.60;76.13
73133;DHT22;61320;52.008;4.530;2022-12-18T06:07:12;0.59;76.24
73133;DHT22;61320;52.008;4.530;2022-12-18T06:09:38;0.57;77.22
73133;DHT22;61320;52.008;4.530;2022-12-18T06:12:03;0.50;76.46
73133;DHT22;61320;52.008;4.530;2022-12-18T06:14:29;0.50;77.32
73133;DHT22;61320;52.008;4.530;2022-12-18T06:16:54;0.57;77.58
73133;DHT22;61320;52.008;4.530;2022-12-18T06:19:20;0.54;75.68
73133;DHT22;61320;52.008;4.530;2022-12-18T06:21:46;0.46;76.06
73133;DHT22;61320;52.008;4.530;2022-12-18T06:24:11;0.46;76.56
73133;DHT22;61320;52.008;4.530;2022-12-18T06:26:38;0.42;75.51
73133;DHT22;61320;52.008;4.530;2022-12-18T06:29:04;0.40;76.16
73133;DHT22;61320;52.008;4.530;2022-12-18T06:31:30;0.40;74.96
73133;DHT22;61320;52.008;4.530;2022-12-18T06:33:55;0.45;75.73
73133;DHT22;61320;52.008;4.530;2022-12-18T06:36:21;0.33;75.75
73133;DHT22;61320;52.008;4.530;2022-12-18T06:38:47;0.33;76.76
73133;DHT22;61320;52.008;4.530;2022-12-18T06:41:15;0.40;77.06
73133;DHT22;61320;52.008;4.530;2022-12-18T06:43:41;0.47;76.94
73133;DHT22;61320;52.008;4.530;2022-12-18T06:46:07;0.47;74.53
73133;DHT22;61320;52.008;4.530;2022-12-18T06:48:34;0.43;74.16
73133;DHT22;61320;52.008;4.530;2022-12-18T06:50:59;0.38;74.36
73133;DHT22;61320;52.008;4.530;2022-12-18T06:53:26;0.33;76.08
73133;DHT22;61320;52.008;4.530;2022-12-18T06:55:51;0.36;74.50
73133;DHT22;61320;52.008;4.530;2022-12-18T06:58:17;0.42;75.75
73133;DHT22;61320;52.008;4.530;2022-12-18T07:00:42;0.39;74.13
73133;DHT22;61320;52.008;4.530;2022-12-18T07:03:08;0.33;76.06
73133;DHT22;61320;52.008;4.530;2022-12-18T07:05:34;0.36;75.87
73133;DHT22;61320;52.008;4.530;2022-12-18T07:07:59;0.39;75.84
73133;DHT22;61320;52.008;4.530;2022-12-18T07:10:25;0.39;74.40
73133;DHT22;61320;52.008;4.530;2022-12-18T07:12:51;0.32;74.97
73133;DHT22;61320;52.008;4.530;2022-12-18T07:15:16;0.38;75.26
73133;DHT22;61320;52.008;4.530;2022-12-18T07:17:42;0.35;76.60
73133;DHT22;61320;52.008;4.530;2022-12-18T07:20:08;0.33;76.51
73133;DHT22;61320;52.008;4.530;2022-12-18T07:22:33;0.33;76.42
73133;DHT22;61320;52.008;4.530;2022-12-18T07:24:59;0.39;76.42
73133;DHT22;61320;52.008;4.530;2022-12-18T07:27:24;0.36;74.94
73133;DHT22;61320;52.008;4.530;2022-12-18T07:29:50;0.30;74.47
73133;DHT22;61320;52.008;4.530;2022-12-18T07:32:15;0.26;76.45
73133;DHT22;61320;52.008;4.530;2022-12-18T07:34:41;0.28;76.62
73133;DHT22;61320;52.008;4.530;2022-12-18T07:37:08;0.35;75.30
73133;DHT22;61320;52.008;4.530;2022-12-18T07:39:33;0.33;76.15
73133;DHT22;61320;52.008;4.530;2022-12-18T07:41:59;0.30;76.18
73133;DHT22;61320;52.008;4.530;2022-12-18T07:44:43;0.33;76.12
73133;DHT22;61320;52.008;4.530;2022-12-18T07:47:08;0.38;75.80
73133;DHT22;61320;52.008;4.530;2022-12-18T07:49:34;0.39;75.95
73133;DHT22;61320;52.008;4.530;2022-12-18T07:51:59;0.39;74.69
73133;DHT22;61320;52.008;4.530;2022-12-18T07:54:25;0.36;76.13
73133;DHT22;61320;52.008;4.530;2022-12-18T07:56:51;0.25;74.33
73133;DHT22;61320;52.008;4.530;2022-12-18T07:59:17;0.23;74.61
73133;DHT22;61320;52.008;4.530;2022-12-18T08:01:43;0.29;76.74
73133;DHT22;61320;52.008;4.530;2022-12-18T08:04:09;0.29;75.16
73133;DHT22;61320;52.008;4.530;2022-12-18T08:06:34;0.26;76.36
73133;DHT22;61320;52.008;4.530;2022-12-18T08:09:00;0.32;74.87
73133;DHT22;61320;52.008;4.530;2022-12-18T08:11:27;0.29;76.28
73133;DHT22;61320;52.008;4.530;2022-12-18T08:13:54;0.35;76.82
73133;DHT22;61320;52.008;4.530;2022-12-18T08:16:20;0.42;76.30
73133;DHT22;61320;52.008;4.530;2022-12-18T08:18:47;0.52;74.98
73133;DHT22;61320;52.008;4.530;2022-12-18T08:21:18;0.54;73.01
73133;DHT22;61320;52.008;4.530;2022-12-18T08:23:44;0.46;75.43
73133;DHT22;61320;52.008;4.530;2022-12-18T08:26:11;0.52;75.32
73133;DHT22;61320;52.008;4.530;2022-12-18T08:28:36;0.59;75.98
73133;DHT22;61320;52.008;4.530;2022-12-18T08:31:02;0.56;75.29
73133;DHT22;61320;52.008;4.530;2022-12-18T08:33:28;0.60;75.94
73133;DHT22;61320;52.008;4.530;2022-12-18T08:35:53;0.60;73.92
73133;DHT22;61320;52.008;4.530;2022-12-18T08:38:19;0.57;74.90
73133;DHT22;61320;52.008;4.530;2022-12-18T08:40:44;0.52;73.82
73133;DHT22;61320;52.008;4.530;2022-12-18T08:43:10;0.59;74.12
73133;DHT22;61320;52.008;4.530;2022-12-18T08:45:54;0.59;74.29
73133;DHT22;61320;52.008;4.530;2022-12-18T08:48:20;0.53;75.19
73133;DHT22;61320;52.008;4.530;2022-12-18T08:50:56;0.54;75.30
73133;DHT22;61320;52.008;4.530;2022-12-18T08:53:27;0.56;75.18
73133;DHT22;61320;52.008;4.530;2022-12-18T08:55:52;0.63;76.05
73133;DHT22;61320;52.008;4.530;2022-12-18T08:58:18;0.71;76.38
73133;DHT22;61320;52.008;4.530;2022-12-18T09:00:44;0.81;76.89
73133;DHT22;61320;52.008;4.530;2022-12-18T09:03:15;0.87;75.66
73133;DHT22;61320;52.008;4.530;2022-12-18T09:05:41;0.95;74.80
73133;DHT22;61320;52.008;4.530;2022-12-18T09:08:07;0.91;74.76
73133;DHT22;61320;52.008;4.530;2022-12-18T09:10:33;0.95;74.96
73133;DHT22;61320;52.008;4.530;2022-12-18T09:12:59;0.92;74.11
73133;DHT22;61320;52.008;4.530;2022-12-18T09:15:24;0.88;73.97
73133;DHT22;61320;52.008;4.530;2022-12-18T09:17:50;0.85;73.45
73133;DHT22;61320;52.008;4.530;2022-12-18T09:20:18;0.83;75.00
73133;DHT22;61320;52.008;4.530;2022-12-18T09:22:44;0.90;76.21
73133;DHT22;61320;52.008;4.530;2022-12-18T09:25:10;0.94;74.93
73133;DHT22;61320;52.008;4.530;2022-12-18T09:27:35;0.94;74.17
73133;DHT22;61320;52.008;4.530;2022-12-18T09:30:02;0.97;73.97
73133;DHT22;61320;52.008;4.530;2022-12-18T09:32:27;1.04;74.09
73133;DHT22;61320;52.008;4.530;2022-12-18T09:34:53;1.02;74.10
73133;DHT22;61320;52.008;4.530;2022-12-18T09:37:18;1.07;74.64
73133;DHT22;61320;52.008;4.530;2022-12-18T09:39:44;1.04;74.02
73133;DHT22;61320;52.008;4.530;2022-12-18T09:42:20;1.04;74.40
73133;DHT22;61320;52.008;4.530;2022-12-18T09:44:51;1.09;75.51
73133;DHT22;61320;52.008;4.530;2022-12-18T09:47:30;1.15;73.39
73133;DHT22;61320;52.008;4.530;2022-12-18T09:50:03;1.15;75.00
73133;DHT22;61320;52.008;4.530;2022-12-18T09:52:43;1.25;73.78
73133;DHT22;61320;52.008;4.530;2022-12-18T09:55:33;1.25;74.43
73133;DHT22;61320;52.008;4.530;2022-12-18T10:00:37;1.39;73.64
73133;DHT22;61320;52.008;4.530;2022-12-18T10:03:14;1.40;73.83
73133;DHT22;61320;52.008;4.530;2022-12-18T10:06:02;1.45;73.27
73133;DHT22;61320;52.008;4.530;2022-12-18T10:11:48;1.32;73.45
73133;DHT22;61320;52.008;4.530;2022-12-18T10:14:27;1.32;73.50
73133;DHT22;61320;52.008;4.530;2022-12-18T10:20:04;1.29;74.55
73133;DHT22;61320;52.008;4.530;2022-12-18T10:25:53;1.40;74.19
73133;DHT22;61320;52.008;4.530;2022-12-18T10:28:22;1.46;74.38
73133;DHT22;61320;52.008;4.530;2022-12-18T10:30:48;1.53;74.95
73133;DHT22;61320;52.008;4.530;2022-12-18T10:33:22;1.52;73.08
73133;DHT22;61320;52.008;4.530;2022-12-18T10:35:53;1.57;73.03
73133;DHT22;61320;52.008;4.530;2022-12-18T10:43:20;1.53;73.57
73133;DHT22;61320;52.008;4.530;2022-12-18T10:48:24;1.64;74.13
73133;DHT22;61320;52.008;4.530;2022-12-18T10:50:54;1.66;73.78
73133;DHT22;61320;52.008;4.530;2022-12-18T10:53:24;1.71;73.61
73133;DHT22;61320;52.008;4.530;2022-12-18T10:55:53;1.70;73.63
73133;DHT22;61320;52.008;4.530;2022-12-18T10:58:34;1.77;73.28
73133;DHT22;61320;52.008;4.530;2022-12-18T11:06:11;1.84;72.80
73133;DHT22;61320;52.008;4.530;2022-12-18T11:08:38;1.88;74.04
73133;DHT22;61320;52.008;4.530;2022-12-18T11:11:20;1.91;73.84
73133;DHT22;61320;52.008;4.530;2022-12-18T11:14:05;1.97;72.51
73133;DHT22;61320;52.008;4.530;2022-12-18T11:16:43;1.93;72.94
73133;DHT22;61320;52.008;4.530;2022-12-18T11:21:50;1.96;74.33
73133;DHT22;61320;52.008;4.530;2022-12-18T11:24:34;2.03;72.56
73133;DHT22;61320;52.008;4.530;2022-12-18T11:27:05;2.04;73.13
73133;DHT22;61320;52.008;4.530;2022-12-18T11:29:39;2.04;73.75
73133;DHT22;61320;52.008;4.530;2022-12-18T11:34:44;2.06;71.57
73133;DHT22;61320;52.008;4.530;2022-12-18T11:37:14;2.03;71.83
73133;DHT22;61320;52.008;4.530;2022-12-18T11:39:46;2.08;72.67
73133;DHT22;61320;52.008;4.530;2022-12-18T11:42:23;2.08;72.95
73133;DHT22;61320;52.008;4.530;2022-12-18T11:44:57;2.11;73.68
73133;DHT22;61320;52.008;4.530;2022-12-18T11:50:14;2.14;72.43
73133;DHT22;61320;52.008;4.530;2022-12-18T11:52:41;2.10;72.19
73133;DHT22;61320;52.008;4.530;2022-12-18T11:55:12;2.08;72.53
73133;DHT22;61320;52.008;4.530;2022-12-18T11:57:54;2.08;72.99
73133;DHT22;61320;52.008;4.530;2022-12-18T12:00:23;2.10;72.08
73133;DHT22;61320;52.008;4.530;2022-12-18T12:03:22;2.15;72.74
73133;DHT22;61320;52.008;4.530;2022-12-18T12:11:57;2.01;73.27
73133;DHT22;61320;52.008;4.530;2022-12-18T12:14:52;2.06;72.86
73133;DHT22;61320;52.008;4.530;2022-12-18T12:23:01;2.06;74.33
73133;DHT22;61320;52.008;4.530;2022-12-18T12:25:40;2.13;75.05
73133;DHT22;61320;52.008;4.530;2022-12-18T12:28:34;2.22;73.60
73133;DHT22;61320;52.008;4.530;2022-12-18T12:37:15;2.22;73.15
73133;DHT22;61320;52.008;4.530;2022-12-18T12:39:47;2.24;73.51
73133;DHT22;61320;52.008;4.530;2022-12-18T12:42:33;2.29;72.81
73133;DHT22;61320;52.008;4.530;2022-12-18T12:45:26;2.31;72.30
73133;DHT22;61320;52.008;4.530;2022-12-18T12:47:55;2.31;73.00
73133;DHT22;61320;52.008;4.530;2022-12-18T12:50:23;2.32;72.12
73133;DHT22;61320;52.008;4.530;2022-12-18T12:52:53;2.25;72.69
73133;DHT22;61320;52.008;4.530;2022-12-18T12:55:24;2.22;73.38
73133;DHT22;61320;52.008;4.530;2022-12-18T13:03:24;2.14;72.59
73133;DHT22;61320;52.008;4.530;2022-12-18T13:06:02;2.17;73.73
73133;DHT22;61320;52.008;4.530;2022-12-18T13:08:32;2.22;73.05
73133;DHT22;61320;52.008;4.530;2022-12-18T13:10:59;2.20;72.99
73133;DHT22;61320;52.008;4.530;2022-12-18T13:13:53;2.25;72.95
73133;DHT22;61320;52.008;4.530;2022-12-18T13:16:24;2.29;73.08
73133;DHT22;61320;52.008;4.530;2022-12-18T13:18:53;2.25;72.48
73133;DHT22;61320;52.008;4.530;2022-12-18T13:21:33;2.22;73.53
73133;DHT22;61320;52.008;4.530;2022-12-18T13:24:35;2.18;73.10
73133;DHT22;61320;52.008;4.530;2022-12-18T13:35:52;2.28;73.12
73133;DHT22;61320;52.008;4.530;2022-12-18T13:45:46;2.29;72.62
73133;DHT22;61320;52.008;4.530;2022-12-18T13:48:21;2.25;73.33
73133;DHT22;61320;52.008;4.530;2022-12-18T13:51:06;2.25;72.54
73133;DHT22;61320;52.008;4.530;2022-12-18T13:53:44;2.25;74.20
73133;DHT22;61320;52.008;4.530;2022-12-18T13:56:24;2.29;73.73
73133;DHT22;61320;52.008;4.530;2022-12-18T14:01:31;2.27;73.13
73133;DHT22;61320;52.008;4.530;2022-12-18T14:04:19;2.25;73.38
73133;DHT22;61320;52.008;4.530;2022-12-18T14:06:47;2.24;73.50
73133;DHT22;61320;52.008;4.530;2022-12-18T14:09:25;2.27;72.76
73133;DHT22;61320;52.008;4.530;2022-12-18T14:11:53;2.18;73.20
73133;DHT22;61320;52.008;4.530;2022-12-18T14:14:45;2.18;74.19
73133;DHT22;61320;52.008;4.530;2022-12-18T14:17:13;2.25;73.11
73133;DHT22;61320;52.008;4.530;2022-12-18T14:19:48;2.27;73.04
73133;DHT22;61320;52.008;4.530;2022-12-18T14:22:18;2.24;73.02
73133;DHT22;61320;52.008;4.530;2022-12-18T14:24:45;2.22;72.42
73133;DHT22;61320;52.008;4.530;2022-12-18T14:27:25;2.14;73.50
73133;DHT22;61320;52.008;4.530;2022-12-18T14:29:51;2.11;73.09
73133;DHT22;61320;52.008;4.530;2022-12-18T14:32:20;2.11;73.49
73133;DHT22;61320;52.008;4.530;2022-12-18T14:34:50;2.10;73.57
73133;DHT22;61320;52.008;4.530;2022-12-18T14:37:20;2.15;73.88
73133;DHT22;61320;52.008;4.530;2022-12-18T14:39:57;2.17;73.31
73133;DHT22;61320;52.008;4.530;2022-12-18T14:42:24;2.18;73.92
73133;DHT22;61320;52.008;4.530;2022-12-18T14:51:00;2.17;73.89
73133;DHT22;61320;52.008;4.530;2022-12-18T14:53:36;2.18;74.38
73133;DHT22;61320;52.008;4.530;2022-12-18T14:56:20;2.18;73.80
73133;DHT22;61320;52.008;4.530;2022-12-18T14:58:53;2.17;74.03
73133;DHT22;61320;52.008;4.530;2022-12-18T15:01:24;2.13;73.15
73133;DHT22;61320;52.008;4.530;2022-12-18T15:03:52;2.07;73.29
73133;DHT22;61320;52.008;4.530;2022-12-18T15:06:34;2.04;73.37
73133;DHT22;61320;52.008;4.530;2022-12-18T15:11:46;2.15;74.65
73133;DHT22;61320;52.008;4.530;2022-12-18T15:14:31;2.13;74.06
73133;DHT22;61320;52.008;4.530;2022-12-18T15:17:00;2.15;74.08
73133;DHT22;61320;52.008;4.530;2022-12-18T15:19:48;2.17;73.16
73133;DHT22;61320;52.008;4.530;2022-12-18T15:22:21;2.17;73.86
73133;DHT22;61320;52.008;4.530;2022-12-18T15:24:47;2.18;72.97
73133;DHT22;61320;52.008;4.530;2022-12-18T15:27:40;2.08;73.28
73133;DHT22;61320;52.008;4.530;2022-12-18T15:32:44;2.10;74.33
73133;DHT22;61320;52.008;4.530;2022-12-18T15:37:56;2.22;74.00
73133;DHT22;61320;52.008;4.530;2022-12-18T15:40:23;2.27;74.65
73133;DHT22;61320;52.008;4.530;2022-12-18T15:42:53;2.35;73.43
73133;DHT22;61320;52.008;4.530;2022-12-18T15:45:38;2.45;73.38
73133;DHT22;61320;52.008;4.530;2022-12-18T15:48:21;2.39;73.50
73133;DHT22;61320;52.008;4.530;2022-12-18T15:50:52;2.41;73.49
73133;DHT22;61320;52.008;4.530;2022-12-18T15:53:18;2.41;74.17
73133;DHT22;61320;52.008;4.530;2022-12-18T15:55:44;2.45;74.85
73133;DHT22;61320;52.008;4.530;2022-12-18T15:58:28;2.38;73.08
73133;DHT22;61320;52.008;4.530;2022-12-18T16:00:56;2.44;73.32
73133;DHT22;61320;52.008;4.530;2022-12-18T16:03:23;2.45;73.19
73133;DHT22;61320;52.008;4.530;2022-12-18T16:05:48;2.45;73.60
73133;DHT22;61320;52.008;4.530;2022-12-18T16:08:13;2.45;73.35
73133;DHT22;61320;52.008;4.530;2022-12-18T16:10:39;2.45;74.06
73133;DHT22;61320;52.008;4.530;2022-12-18T16:13:07;2.48;73.05
73133;DHT22;61320;52.008;4.530;2022-12-18T16:15:34;2.42;74.20
73133;DHT22;61320;52.008;4.530;2022-12-18T16:17:59;2.48;73.53
73133;DHT22;61320;52.008;4.530;2022-12-18T16:20:25;2.50;72.71
73133;DHT22;61320;52.008;4.530;2022-12-18T16:22:50;2.46;72.95
73133;DHT22;61320;52.008;4.530;2022-12-18T16:25:27;2.49;73.29
73133;DHT22;61320;52.008;4.530;2022-12-18T16:27:54;2.49;72.53
73133;DHT22;61320;52.008;4.530;2022-12-18T16:30:29;2.46;71.10
73133;DHT22;61320;52.008;4.530;2022-12-18T16:32:56;2.45;72.53
73133;DHT22;61320;52.008;4.530;2022-12-18T16:35:23;2.46;72.48
73133;DHT22;61320;52.008;4.530;2022-12-18T16:37:48;2.49;71.45
73133;DHT22;61320;52.008;4.530;2022-12-18T16:40:16;2.48;72.32
73133;DHT22;61320;52.008;4.530;2022-12-18T16:42:44;2.46;71.24
73133;DHT22;61320;52.008;4.530;2022-12-18T16:45:13;2.42;71.24
73133;DHT22;61320;52.008;4.530;2022-12-18T16:47:39;2.42;71.37
73133;DHT22;61320;52.008;4.530;2022-12-18T16:50:06;2.44;71.29
73133;DHT22;61320;52.008;4.530;2022-12-18T16:52:32;2.42;70.75
73133;DHT22;61320;52.008;4.530;2022-12-18T16:54:58;2.44;71.98
73133;DHT22;61320;52.008;4.530;2022-12-18T16:57:23;2.48;71.23
73133;DHT22;61320;52.008;4.530;2022-12-18T16:59:49;2.46;70.71
73133;DHT22;61320;52.008;4.530;2022-12-18T17:02:24;2.46;71.22
73133;DHT22;61320;52.008;4.530;2022-12-18T17:04:53;2.49;71.43
73133;DHT22;61320;52.008;4.530;2022-12-18T17:07:19;2.46;71.47
73133;DHT22;61320;52.008;4.530;2022-12-18T17:09:45;2.38;71.02
73133;DHT22;61320;52.008;4.530;2022-12-18T17:12:11;2.46;71.91
73133;DHT22;61320;52.008;4.530;2022-12-18T17:14:36;2.44;70.85
73133;DHT22;61320;52.008;4.530;2022-12-18T17:17:02;2.41;71.23
73133;DHT22;61320;52.008;4.530;2022-12-18T17:19:28;2.48;70.87
73133;DHT22;61320;52.008;4.530;2022-12-18T17:21:54;2.48;71.40
73133;DHT22;61320;52.008;4.530;2022-12-18T17:24:20;2.49;71.96
73133;DHT22;61320;52.008;4.530;2022-12-18T17:26:46;2.52;72.34
73133;DHT22;61320;52.008;4.530;2022-12-18T17:29:15;2.58;71.37
73133;DHT22;61320;52.008;4.530;2022-12-18T17:31:41;2.56;71.37
73133;DHT22;61320;52.008;4.530;2022-12-18T17:34:09;2.58;71.23
73133;DHT22;61320;52.008;4.530;2022-12-18T17:36:34;2.59;71.13
73133;DHT22;61320;52.008;4.530;2022-12-18T17:39:01;2.62;70.85
73133;DHT22;61320;52.008;4.530;2022-12-18T17:41:28;2.60;71.31
73133;DHT22;61320;52.008;4.530;2022-12-18T17:43:59;2.59;71.39
73133;DHT22;61320;52.008;4.530;2022-12-18T17:46:27;2.59;71.30
73133;DHT22;61320;52.008;4.530;2022-12-18T17:48:57;2.60;72.46
73133;DHT22;61320;52.008;4.530;2022-12-18T17:51:23;2.65;71.68